Time;durP1;ratioP1;P1;durP2;ratioP2;P2;SDS_P1;SDS_P2;PMS_P1;PMS_P2;Temp;Humidity;BMP_temperature;BMP_pressure;BME280_temperature;BME280_humidity;BME280_pressure;Samples;Min_cycle;Max_cycle;Signal;HPM_P1;HPM_P2
2024/01/26 00:00:53;;;;;;;12.13;9.43;;;;;;;29.08;59.17;101535.91;5067500;28;66451;-37
2024/01/26 00:03:25;;;;;;;15.75;8.98;;;;;;;29.09;59.54;101537.59;5056204;28;69670;-36
2024/01/26 00:05:56;;;;;;;12.63;9.53;;;;;;;29.01;62.79;101529.59;5043465;28;66150;-37
2024/01/26 00:08:26;;;;;;;23.17;11.52;;;;;;;29.24;64.18;101535.66;5056661;28;69774;-38
2024/01/26 00:10:58;;;;;;;21.02;11.45;;;;;;;29.33;63.54;101545.28;5042237;28;65918;-38
2024/01/26 00:13:28;;;;;;;18.17;11.27;;;;;;;29.38;64.13;101555.53;5040000;28;70325;-39
2024/01/26 00:15:59;;;;;;;22.65;10.93;;;;;;;29.43;64.53;101552.25;5063229;28;66609;-36
2024/01/26 00:18:29;;;;;;;17.75;10.85;;;;;;;29.45;64.27;101552.88;5054716;28;70449;-36
2024/01/26 00:21:00;;;;;;;21.35;10.80;;;;;;;29.49;63.11;101554.19;5049250;28;65477;-36
2024/01/26 00:23:31;;;;;;;21.13;11.48;;;;;;;29.51;64.56;101560.22;5043080;28;70864;-35
2024/01/26 00:26:02;;;;;;;21.25;11.75;;;;;;;29.46;64.79;101549.16;5052680;28;65781;-37
2024/01/26 00:28:32;;;;;;;26.77;12.38;;;;;;;29.55;64.34;101565.03;5043198;28;69962;-39
2024/01/26 00:31:03;;;;;;;34.00;15.70;;;;;;;29.48;64.31;101560.63;5055718;28;65701;-37
2024/01/26 00:33:37;;;;;;;27.60;16.02;;;;;;;29.49;62.92;101571.22;5023893;28;70154;-36
2024/01/26 00:36:08;;;;;;;31.13;15.70;;;;;;;29.38;62.85;101559.06;5039612;28;66742;-37
2024/01/26 00:38:39;;;;;;;39.85;15.75;;;;;;;29.38;63.23;101569.88;5031674;28;69746;-37
2024/01/26 00:41:10;;;;;;;37.35;15.25;;;;;;;29.40;61.85;101577.81;5039957;28;66535;-37
2024/01/26 00:43:41;;;;;;;26.67;14.50;;;;;;;29.39;61.68;101585.09;5039337;28;69273;-36
2024/01/26 00:46:12;;;;;;;26.00;14.23;;;;;;;29.34;62.34;101584.81;5045440;28;65978;-36
2024/01/26 00:48:43;;;;;;;27.15;14.02;;;;;;;29.35;61.75;101586.47;5030429;28;69666;-38
2024/01/26 00:51:14;;;;;;;27.83;13.32;;;;;;;29.21;62.62;101573.88;5039954;28;66496;-36
2024/01/26 00:53:46;;;;;;;30.42;14.20;;;;;;;29.30;63.92;101588.09;5049800;28;69877;-37
2024/01/26 00:56:16;;;;;;;25.17;14.10;;;;;;;29.49;63.80;101614.47;5035482;28;65847;-42
2024/01/26 00:58:47;;;;;;;17.55;12.63;;;;;;;29.53;62.01;101610.38;5030261;28;70629;-38
2024/01/26 01:01:18;;;;;;;12.50;11.07;;;;;;;29.36;61.75;101599.00;5058060;28;66680;-37
2024/01/26 01:03:49;;;;;;;19.48;10.93;;;;;;;29.50;61.37;101616.13;5056748;28;69957;-38
2024/01/26 01:06:19;;;;;;;12.93;10.38;;;;;;;29.55;61.79;101626.38;5049954;28;65552;-37
2024/01/26 01:08:50;;;;;;;12.48;10.32;;;;;;;29.56;61.23;101614.53;5057692;28;70014;-43
2024/01/26 01:11:21;;;;;;;14.10;10.35;;;;;;;29.60;61.60;101618.53;5049516;28;66493;-37
2024/01/26 01:13:51;;;;;;;11.38;10.15;;;;;;;29.61;61.57;101617.50;5058024;28;70213;-38
2024/01/26 01:16:22;;;;;;;11.80;10.63;;;;;;;29.63;61.35;101610.06;5046881;28;66793;-37
2024/01/26 01:18:53;;;;;;;13.15;10.27;;;;;;;29.67;61.10;101616.75;5059603;28;69485;-37
2024/01/26 01:21:23;;;;;;;13.27;10.50;;;;;;;29.58;61.05;101612.47;5059877;28;66696;-37
2024/01/26 01:23:54;;;;;;;15.35;10.07;;;;;;;29.71;61.03;101636.13;5058745;28;69564;-38
2024/01/26 01:26:27;;;;;;;16.83;10.73;;;;;;;29.73;60.66;101621.38;5058670;28;66324;-37
2024/01/26 01:28:58;;;;;;;10.32;9.30;;;;;;;29.69;61.26;101620.09;5047221;28;70598;-38
2024/01/26 01:31:29;;;;;;;10.98;9.80;;;;;;;29.72;60.89;101622.41;5061432;28;66328;-39
2024/01/26 01:33:59;;;;;;;14.50;9.68;;;;;;;29.78;60.72;101628.91;5060505;28;70482;-37
2024/01/26 01:36:31;;;;;;;15.32;11.00;;;;;;;29.77;60.93;101628.06;5060150;28;66097;-38
2024/01/26 01:39:01;;;;;;;13.30;9.60;;;;;;;29.79;60.95;101631.41;5059653;28;70239;-38
2024/01/26 01:41:31;;;;;;;10.70;9.57;;;;;;;29.81;60.89;101634.78;5054601;28;66580;-38
2024/01/26 01:44:02;;;;;;;11.85;9.48;;;;;;;29.79;61.00;101626.00;5047374;28;70205;-39
2024/01/26 01:46:33;;;;;;;13.27;9.10;;;;;;;29.83;60.63;101626.44;5046332;28;66803;-37
2024/01/26 01:49:04;;;;;;;13.23;9.80;;;;;;;29.75;61.10;101619.31;5054078;28;69677;-37
2024/01/26 01:51:37;;;;;;;10.68;9.68;;;;;;;29.69;61.09;101603.88;5048347;28;65447;-37
2024/01/26 01:54:08;;;;;;;12.73;9.05;;;;;;;29.88;60.74;101631.28;5053122;28;70205;-37
2024/01/26 01:56:39;;;;;;;10.50;9.03;;;;;;;29.88;61.13;101639.41;5041468;28;65462;-37
2024/01/26 01:59:11;;;;;;;9.95;9.02;;;;;;;29.84;60.49;101638.97;5037785;28;69964;-38
2024/01/26 02:01:42;;;;;;;11.13;8.95;;;;;;;29.88;60.92;101644.81;5041757;28;66335;-38
2024/01/26 02:04:12;;;;;;;10.80;9.35;;;;;;;29.93;60.76;101647.78;5058716;28;69825;-38
2024/01/26 02:06:57;;;;;;;9.00;8.25;;;;;;;29.75;60.37;101627.41;5042304;28;66471;-37
2024/01/26 02:09:29;;;;;;;9.00;8.13;;;;;;;29.97;60.97;101659.84;5040642;28;70167;-37
2024/01/26 02:12:00;;;;;;;9.93;9.02;;;;;;;29.96;60.98;101658.19;5048234;28;65270;-37
2024/01/26 02:14:30;;;;;;;10.98;8.48;;;;;;;29.97;60.96;101659.84;5038558;28;70840;-37
2024/01/26 02:17:02;;;;;;;9.27;8.38;;;;;;;30.01;60.56;101666.56;5054016;28;65727;-37
2024/01/26 02:19:34;;;;;;;8.75;7.95;;;;;;;30.01;60.75;101663.84;5035253;28;69997;-38
2024/01/26 02:22:05;;;;;;;10.02;9.02;;;;;;;30.00;60.65;101654.88;5046557;28;66752;-37
2024/01/26 02:24:35;;;;;;;8.98;8.18;;;;;;;29.92;60.24;101635.25;5060112;28;69506;-38
2024/01/26 02:27:06;;;;;;;9.82;8.70;;;;;;;30.06;60.30;101662.25;5058146;28;65957;-38
2024/01/26 02:29:36;;;;;;;9.40;8.15;;;;;;;30.07;60.54;101660.38;5048683;28;70434;-37
2024/01/26 02:32:10;;;;;;;8.65;8.05;;;;;;;29.99;60.60;101641.56;5053016;28;65234;-37
2024/01/26 02:34:42;;;;;;;8.95;8.10;;;;;;;30.11;60.15;101653.50;5049140;28;69755;-36
2024/01/26 02:37:13;;;;;;;9.73;7.95;;;;;;;30.08;60.71;101651.19;5059724;28;66257;-37
2024/01/26 02:39:44;;;;;;;7.90;7.22;;;;;;;30.13;60.17;101648.75;5070230;28;69464;-37
2024/01/26 02:42:14;;;;;;;8.77;8.07;;;;;;;30.07;60.33;101644.13;5057210;28;65646;-37
2024/01/26 02:44:45;;;;;;;8.98;8.25;;;;;;;30.11;60.56;101636.44;5058720;28;70072;-38
2024/01/26 02:47:16;;;;;;;8.85;8.23;;;;;;;30.17;60.60;101639.22;5058968;28;66010;-37
2024/01/26 02:49:46;;;;;;;11.65;8.65;;;;;;;30.17;60.41;101638.34;5058650;28;70554;-38
2024/01/26 02:52:17;;;;;;;9.35;8.43;;;;;;;30.24;60.21;101645.53;5054789;28;67053;-39
2024/01/26 02:54:49;;;;;;;9.10;7.80;;;;;;;30.24;60.16;101645.53;5038903;28;70057;-38
2024/01/26 02:57:20;;;;;;;10.07;8.07;;;;;;;30.26;60.17;101642.63;5040243;28;67031;-37
2024/01/26 02:59:50;;;;;;;9.13;8.40;;;;;;;30.30;60.32;101643.06;5038751;28;70291;-37
2024/01/26 03:02:21;;;;;;;9.07;8.27;;;;;;;30.32;60.66;101641.00;5038075;28;66453;-38
2024/01/26 03:04:51;;;;;;;8.27;7.57;;;;;;;30.32;60.25;101641.00;5038788;28;69588;-37
2024/01/26 03:07:22;;;;;;;9.27;8.35;;;;;;;30.35;60.63;101643.31;5030783;28;66642;-37
2024/01/26 03:09:53;;;;;;;8.70;8.07;;;;;;;30.37;60.10;101649.34;5037720;28;69376;-37
2024/01/26 03:12:23;;;;;;;9.85;8.68;;;;;;;30.07;60.28;101595.44;5054933;28;66193;-37
2024/01/26 03:14:54;;;;;;;8.68;8.00;;;;;;;30.40;59.96;101648.97;5028723;28;71527;-37
2024/01/26 03:17:26;;;;;;;8.48;7.78;;;;;;;30.43;59.97;101640.44;5058752;28;65363;-43
2024/01/26 03:19:58;;;;;;;9.20;8.23;;;;;;;30.44;59.89;101636.69;5057672;28;70145;-37
2024/01/26 03:22:29;;;;;;;8.90;8.15;;;;;;;30.47;60.46;101639.00;5059891;28;66966;-37
2024/01/26 03:25:01;;;;;;;9.45;8.50;;;;;;;30.48;60.30;101635.28;5043524;28;70598;-38
2024/01/26 03:27:32;;;;;;;8.98;7.93;;;;;;;30.47;60.33;101628.16;5043481;28;64980;-38
2024/01/26 03:30:06;;;;;;;9.48;8.70;;;;;;;30.53;60.15;101635.50;5043189;28;69585;-37
2024/01/26 03:32:37;;;;;;;9.20;8.45;;;;;;;30.56;59.95;101629.66;5042198;28;66678;-36
2024/01/26 03:35:08;;;;;;;8.90;8.20;;;;;;;30.47;60.08;101611.94;5043086;28;70032;-38
2024/01/26 03:37:40;;;;;;;8.82;8.00;;;;;;;30.55;60.02;101624.47;5042140;28;66385;-37
2024/01/26 03:40:11;;;;;;;8.15;7.53;;;;;;;30.61;59.90;101624.50;5036623;28;70540;-38
2024/01/26 03:42:42;;;;;;;9.57;8.73;;;;;;;30.63;59.62;101622.44;5038494;28;67413;-38
2024/01/26 03:45:14;;;;;;;8.68;8.02;;;;;;;30.66;59.87;101635.56;5039730;28;69995;-37
2024/01/26 03:47:45;;;;;;;9.45;8.65;;;;;;;30.68;59.69;101627.25;5042351;28;67270;-37
2024/01/26 03:50:16;;;;;;;8.25;7.68;;;;;;;30.71;59.44;101627.69;5041393;28;69725;-37
2024/01/26 03:52:47;;;;;;;10.20;8.30;;;;;;;30.71;59.69;101624.97;5035606;28;66175;-37
2024/01/26 03:55:17;;;;;;;9.25;8.55;;;;;;;30.76;59.66;101620.81;5036706;28;69949;-37
2024/01/26 03:57:48;;;;;;;9.63;8.85;;;;;;;30.70;59.78;101609.78;5055372;28;66618;-37
2024/01/26 04:00:18;;;;;;;9.00;8.13;;;;;;;30.79;59.39;101626.69;5053717;28;70461;-37
2024/01/26 04:02:49;;;;;;;9.88;9.07;;;;;;;30.81;59.50;101618.38;5070376;27;65591;-38
2024/01/26 04:05:20;;;;;;;9.40;8.70;;;;;;;30.84;59.41;101612.53;5077431;28;70898;-37
2024/01/26 04:07:51;;;;;;;10.43;9.55;;;;;;;30.86;59.29;101607.75;5060426;28;67438;-37
2024/01/26 04:10:21;;;;;;;9.65;8.80;;;;;;;30.88;59.12;101605.69;5045393;28;70589;-38
2024/01/26 04:12:51;;;;;;;8.90;8.18;;;;;;;30.89;59.18;101610.06;5060436;28;66013;-37
2024/01/26 04:15:22;;;;;;;9.48;8.65;;;;;;;30.84;59.45;101590.88;5038024;28;70714;-37
2024/01/26 04:17:53;;;;;;;10.10;9.13;;;;;;;30.93;59.48;101608.63;5060525;28;65781;-37
2024/01/26 04:20:24;;;;;;;9.38;8.50;;;;;;;30.93;59.59;101592.38;5059073;28;70436;-37
2024/01/26 04:22:54;;;;;;;10.23;9.45;;;;;;;30.97;59.04;101592.78;5060775;28;66789;-37
2024/01/26 04:25:25;;;;;;;9.60;8.90;;;;;;;30.87;59.15;101566.06;5060288;28;69456;-37
2024/01/26 04:27:55;;;;;;;10.75;9.85;;;;;;;30.77;59.02;101549.38;5043158;28;67044;-38
2024/01/26 04:30:26;;;;;;;10.90;9.90;;;;;;;31.02;59.11;101588.44;5045533;28;69469;-38
2024/01/26 04:32:56;;;;;;;10.98;10.07;;;;;;;31.05;59.27;101577.19;5054344;28;66115;-38
2024/01/26 04:35:27;;;;;;;10.50;9.60;;;;;;;31.05;59.34;101576.34;5060108;28;69942;-38
2024/01/26 04:37:57;;;;;;;15.30;11.15;;;;;;;31.07;59.27;101568.88;5061112;28;65339;-38
2024/01/26 04:40:28;;;;;;;11.30;10.20;;;;;;;31.08;59.26;101562.38;5060917;28;70668;-37
2024/01/26 04:43:00;;;;;;;11.45;10.40;;;;;;;31.10;59.40;101560.31;5042073;28;66169;-37
2024/01/26 04:45:30;;;;;;;12.18;11.07;;;;;;;31.08;59.14;101549.66;5071310;28;70014;-38
2024/01/26 04:48:01;;;;;;;11.13;10.20;;;;;;;31.13;59.00;101558.03;5031549;28;65935;-37
2024/01/26 04:50:31;;;;;;;12.32;11.10;;;;;;;31.13;59.16;101547.19;5039317;28;70516;-38
2024/01/26 04:53:02;;;;;;;11.93;10.93;;;;;;;31.07;59.05;101531.75;5042374;28;66271;-37
2024/01/26 04:55:32;;;;;;;13.25;11.85;;;;;;;31.19;59.26;101550.13;5052652;28;70299;-38
2024/01/26 04:58:03;;;;;;;13.90;11.82;;;;;;;31.18;59.01;101538.44;5039733;28;66217;-38
2024/01/26 05:00:34;;;;;;;13.35;11.98;;;;;;;31.20;59.28;101524.66;5052799;28;69609;-38
2024/01/26 05:03:04;;;;;;;14.52;11.35;;;;;;;31.19;59.10;101523.00;5036411;28;66182;-38
2024/01/26 05:05:37;;;;;;;13.63;12.32;;;;;;;31.14;59.08;101505.47;5038945;28;69343;-38
2024/01/26 05:08:07;;;;;;;13.68;12.45;;;;;;;31.26;59.20;101508.44;5043257;28;66360;-36
2024/01/26 05:10:38;;;;;;;13.23;11.98;;;;;;;31.27;59.13;101506.56;5050843;28;70065;-36
2024/01/26 05:13:09;;;;;;;13.40;12.02;;;;;;;31.28;59.16;101494.66;5054223;28;66828;-37
2024/01/26 05:15:40;;;;;;;13.52;12.27;;;;;;;31.26;59.18;101488.59;5055916;28;70006;-37
2024/01/26 05:18:10;;;;;;;12.98;11.90;;;;;;;31.29;59.00;101490.91;5047467;28;66432;-38
2024/01/26 05:20:41;;;;;;;14.68;13.02;;;;;;;31.30;59.04;101482.56;5054830;28;70740;-37
2024/01/26 05:23:11;;;;;;;14.60;13.20;;;;;;;31.35;59.19;101484.66;5041258;28;65716;-37
2024/01/26 05:25:42;;;;;;;14.45;12.90;;;;;;;31.31;59.16;101469.84;5042491;28;69720;-37
2024/01/26 05:28:12;;;;;;;14.82;13.43;;;;;;;31.36;59.08;101470.91;5042309;28;66836;-37
2024/01/26 05:30:43;;;;;;;14.85;13.35;;;;;;;31.37;58.91;101466.31;5058529;28;69805;-37
2024/01/26 05:33:13;;;;;;;15.35;13.25;;;;;;;31.24;58.94;101447.34;5041988;28;66513;-38
2024/01/26 05:35:45;;;;;;;16.38;13.75;;;;;;;31.09;58.77;101415.00;5043256;28;69558;-37
2024/01/26 05:38:15;;;;;;;14.77;13.25;;;;;;;31.42;59.17;101457.56;5051249;28;65326;-37
2024/01/26 05:40:46;;;;;;;15.07;13.60;;;;;;;31.44;59.30;101456.31;5049844;28;70605;-38
2024/01/26 05:43:16;;;;;;;15.63;14.10;;;;;;;31.47;59.13;101444.22;5041775;28;66496;-38
2024/01/26 05:45:47;;;;;;;14.70;13.23;;;;;;;31.49;58.80;101442.97;5040957;28;70028;-37
2024/01/26 05:48:17;;;;;;;14.93;13.65;;;;;;;31.51;59.02;101438.16;5040541;28;65767;-38
2024/01/26 05:50:48;;;;;;;15.30;13.90;;;;;;;31.45;58.97;101413.75;5042761;28;69457;-38
2024/01/26 05:53:18;;;;;;;14.98;13.48;;;;;;;31.54;59.04;101426.91;5041301;28;65667;-37
2024/01/26 05:55:49;;;;;;;16.80;14.95;;;;;;;31.46;58.94;101405.44;5032343;28;70103;-40
2024/01/26 05:58:19;;;;;;;15.18;13.70;;;;;;;31.32;59.14;101369.34;5056844;28;66057;-37
2024/01/26 06:00:50;;;;;;;18.67;14.95;;;;;;;31.59;58.95;101404.53;5056054;28;69881;-38
2024/01/26 06:03:20;;;;;;;18.90;14.57;;;;;;;31.60;59.24;101396.22;5039507;28;65579;-37
2024/01/26 06:05:51;;;;;;;15.77;14.38;;;;;;;31.64;58.84;101401.19;5041717;28;69914;-37
2024/01/26 06:08:21;;;;;;;15.35;13.85;;;;;;;31.60;58.97;101385.34;5036808;28;66409;-37
2024/01/26 06:10:52;;;;;;;16.77;15.18;;;;;;;31.67;59.16;101384.50;5039359;28;69416;-38
2024/01/26 06:13:23;;;;;;;18.75;14.68;;;;;;;31.69;58.92;101377.00;5041404;28;66333;-37
2024/01/26 06:15:53;;;;;;;16.88;14.68;;;;;;;31.64;58.56;101368.66;5041510;28;70897;-38
2024/01/26 06:18:24;;;;;;;18.63;15.85;;;;;;;31.73;59.23;101368.22;5055278;28;65967;-39
2024/01/26 06:20:54;;;;;;;16.73;14.98;;;;;;;31.75;58.88;101359.84;5060394;28;69948;-37
2024/01/26 06:23:25;;;;;;;21.40;16.40;;;;;;;31.47;58.76;101314.06;5059629;28;65582;-37
2024/01/26 06:25:55;;;;;;;16.98;15.25;;;;;;;31.78;58.66;101345.84;5057224;28;70150;-38
2024/01/26 06:28:26;;;;;;;19.00;15.35;;;;;;;31.79;58.70;101333.97;5049425;28;65906;-37
2024/01/26 06:30:56;;;;;;;15.82;14.30;;;;;;;31.79;58.67;101320.41;5036642;28;70186;-38
2024/01/26 06:33:27;;;;;;;16.95;15.07;;;;;;;31.82;59.01;101328.13;5074707;28;66463;-41
2024/01/26 06:35:58;;;;;;;16.77;15.07;;;;;;;31.86;58.82;101328.50;5042690;28;69247;-39
2024/01/26 06:38:28;;;;;;;16.85;15.30;;;;;;;31.87;58.61;101325.56;5054194;28;66040;-37
2024/01/26 06:40:59;;;;;;;19.98;15.10;;;;;;;31.90;58.75;101317.00;5052677;28;70392;-38
2024/01/26 06:43:29;;;;;;;19.45;15.02;;;;;;;31.90;58.84;101300.75;5034972;28;66702;-38
2024/01/26 06:46:00;;;;;;;16.15;14.50;;;;;;;31.92;58.62;101306.78;5040939;28;69879;-37
2024/01/26 06:48:33;;;;;;;18.38;15.15;;;;;;;31.96;58.65;101308.03;5040062;28;66565;-37
2024/01/26 06:51:05;;;;;;;16.02;14.23;;;;;;;31.98;58.53;101303.22;5040439;28;69611;-37
2024/01/26 06:53:35;;;;;;;20.05;15.20;;;;;;;31.99;58.66;101296.75;5039422;28;66161;-37
2024/01/26 06:56:07;;;;;;;17.05;15.00;;;;;;;31.72;58.51;101235.53;5040556;28;70118;-38
2024/01/26 06:58:38;;;;;;;21.80;15.50;;;;;;;32.01;58.32;101283.78;5041843;28;66902;-39
2024/01/26 07:01:09;;;;;;;16.73;15.10;;;;;;;32.07;58.20;101281.22;5039060;28;70202;-38
2024/01/26 07:03:39;;;;;;;15.73;14.27;;;;;;;32.02;58.34;101274.59;5040251;28;65510;-40
2024/01/26 07:06:10;;;;;;;16.08;14.38;;;;;;;32.05;58.26;101260.59;5048438;28;70097;-38
2024/01/26 07:08:41;;;;;;;16.20;14.65;;;;;;;32.13;58.44;101269.53;5045872;28;66126;-38
2024/01/26 07:11:14;;;;;;;15.82;14.43;;;;;;;32.04;58.40;101245.38;5025094;28;70016;-38
2024/01/26 07:13:45;;;;;;;16.80;14.43;;;;;;;32.16;58.31;101258.22;5043393;28;66376;-37
2024/01/26 07:16:16;;;;;;;16.63;14.83;;;;;;;32.17;58.31;101249.03;5041825;28;70083;-38
2024/01/26 07:18:46;;;;;;;16.90;15.35;;;;;;;32.23;58.28;101259.00;5042392;28;66055;-37
2024/01/26 07:21:19;;;;;;;17.10;15.18;;;;;;;32.26;58.35;101253.13;5042407;28;69881;-37
2024/01/26 07:23:49;;;;;;;17.63;14.50;;;;;;;32.28;58.33;101251.03;5056448;28;65966;-38
2024/01/26 07:26:21;;;;;;;17.08;14.75;;;;;;;32.29;58.32;101247.28;5056004;28;70547;-38
2024/01/26 07:28:51;;;;;;;17.63;15.73;;;;;;;32.25;58.29;101246.03;5056283;28;66470;-38
2024/01/26 07:31:21;;;;;;;16.85;15.05;;;;;;;32.34;58.42;101243.88;5045116;28;70781;-37
2024/01/26 07:33:52;;;;;;;16.48;14.85;;;;;;;32.35;58.38;101240.94;5059067;28;65288;-38
2024/01/26 07:36:23;;;;;;;18.08;15.35;;;;;;;32.40;58.31;101243.84;5037726;28;69731;-38
2024/01/26 07:38:53;;;;;;;17.13;15.35;;;;;;;32.42;58.14;101239.00;5060294;28;66370;-38
2024/01/26 07:41:24;;;;;;;16.10;14.50;;;;;;;32.45;58.13;101233.13;5071654;28;70588;-38
2024/01/26 07:43:54;;;;;;;17.45;15.55;;;;;;;32.49;58.05;101230.84;5050935;28;65946;-38
2024/01/26 07:46:25;;;;;;;15.85;14.68;;;;;;;32.53;57.88;101236.66;5039946;28;69881;-39
2024/01/26 07:48:55;;;;;;;16.30;14.70;;;;;;;32.55;58.05;101229.94;5040614;28;66487;-37
2024/01/26 07:51:26;;;;;;;17.38;14.57;;;;;;;32.59;58.13;101225.69;5035821;28;69524;-38
2024/01/26 07:53:56;;;;;;;17.42;15.63;;;;;;;32.62;57.84;101224.44;5036443;28;65983;-38
2024/01/26 07:56:27;;;;;;;16.20;14.65;;;;;;;32.64;57.75;101220.44;5037984;28;70133;-37
2024/01/26 07:58:57;;;;;;;16.15;14.60;;;;;;;32.68;57.99;101216.22;5038158;28;66289;-40
2024/01/26 08:01:28;;;;;;;16.17;14.40;;;;;;;32.69;58.05;101208.91;5036271;28;70021;-38
2024/01/26 08:03:59;;;;;;;15.77;14.20;;;;;;;32.75;57.74;101212.59;5041878;28;66202;-37
2024/01/26 08:06:30;;;;;;;15.35;13.95;;;;;;;32.77;57.64;101210.50;5039612;28;70278;-38
2024/01/26 08:09:01;;;;;;;16.02;14.52;;;;;;;32.82;57.67;101203.34;5040027;28;65838;-37
2024/01/26 08:11:32;;;;;;;17.73;13.87;;;;;;;32.84;57.65;101212.06;5034035;28;70848;-37
2024/01/26 08:14:03;;;;;;;18.27;14.15;;;;;;;32.86;57.74;101198.28;5058747;28;66589;-39
2024/01/26 08:16:35;;;;;;;15.50;13.90;;;;;;;32.90;57.54;101204.91;5062859;28;71069;-38
2024/01/26 08:19:06;;;;;;;15.95;14.45;;;;;;;32.86;57.70;101188.22;5047242;28;65602;-37
2024/01/26 08:21:37;;;;;;;15.98;14.50;;;;;;;32.99;57.31;101208.13;5052889;28;69768;-38
2024/01/26 08:24:08;;;;;;;16.15;14.57;;;;;;;33.03;57.11;101206.69;5048193;28;65786;-38
2024/01/26 08:26:39;;;;;;;14.85;13.50;;;;;;;33.05;57.51;101207.28;5045440;28;70076;-38
2024/01/26 08:29:10;;;;;;;15.02;13.77;;;;;;;33.06;57.30;101190.75;5047433;28;67049;-38
2024/01/26 08:31:42;;;;;;;16.23;14.32;;;;;;;33.12;57.50;101197.97;5050305;28;69945;-38
2024/01/26 08:34:12;;;;;;;15.30;13.88;;;;;;;33.17;57.31;101204.63;5051183;28;66738;-38
2024/01/26 08:36:43;;;;;;;14.02;12.63;;;;;;;33.15;57.01;101196.69;5042614;28;70679;-37
2024/01/26 08:39:14;;;;;;;16.15;14.48;;;;;;;33.21;57.53;101195.81;5057336;28;65468;-37
2024/01/26 08:41:46;;;;;;;15.48;13.95;;;;;;;33.17;57.30;101178.28;5055633;28;70123;-37
2024/01/26 08:44:17;;;;;;;14.90;13.55;;;;;;;33.29;57.02;101198.19;5051330;28;66552;-37
2024/01/26 08:46:47;;;;;;;15.43;13.75;;;;;;;33.32;57.16;101195.03;5036466;28;70504;-39
2024/01/26 08:49:18;;;;;;;;;;;;;;;33.17;56.56;101193.75;5046125;28;66000;-37
2024/01/26 08:51:51;;;;;;;15.57;14.05;;;;;;;33.34;57.16;101192.88;5052155;28;70647;-38
2024/01/26 08:54:21;;;;;;;16.13;14.82;;;;;;;33.40;57.05;101187.59;5040907;28;65225;-38
2024/01/26 08:56:53;;;;;;;15.65;14.27;;;;;;;33.11;56.80;101147.41;5038644;28;70455;-39
2024/01/26 08:59:23;;;;;;;15.45;14.25;;;;;;;33.45;56.68;101190.44;5040659;28;65713;-37
2024/01/26 09:01:54;;;;;;;15.80;14.35;;;;;;;33.49;56.70;101197.06;5041223;28;70831;-38
2024/01/26 09:04:25;;;;;;;14.98;13.45;;;;;;;33.51;56.58;101200.41;5039629;28;66758;-37
2024/01/26 09:06:55;;;;;;;15.40;13.93;;;;;;;33.55;56.38;101201.66;5040022;28;68432;-37
2024/01/26 09:09:39;;;;;;;15.65;13.70;;;;;;;33.59;56.58;101200.09;5044053;28;67354;-37
2024/01/26 09:12:09;;;;;;;15.25;13.95;;;;;;;33.58;56.63;101195.75;5025896;28;70576;-37
2024/01/26 09:14:40;;;;;;;17.23;14.68;;;;;;;33.56;56.29;101203.28;5032325;28;65515;-38
2024/01/26 09:17:10;;;;;;;19.65;17.73;;;;;;;33.43;57.39;101203.44;5039554;28;70453;-40
2024/01/26 09:19:40;;;;;;;20.23;18.13;;;;;;;33.35;57.87;101202.72;5046067;28;67338;-37
2024/01/26 09:22:11;;;;;;;29.73;19.50;;;;;;;33.21;58.19;101190.38;5051714;28;70487;-37
2024/01/26 09:24:42;;;;;;;24.02;18.35;;;;;;;33.23;58.47;101207.25;5049918;28;66162;-37
2024/01/26 09:27:12;;;;;;;23.42;19.83;;;;;;;33.16;58.91;101209.25;5051868;28;69887;-38
2024/01/26 09:29:43;;;;;;;25.05;20.23;;;;;;;33.19;58.82;101203.34;5038170;28;66036;-37
2024/01/26 09:32:14;;;;;;;27.10;21.17;;;;;;;33.15;59.00;101215.72;5051127;28;70837;-37
2024/01/26 09:34:44;;;;;;;28.80;21.63;;;;;;;33.16;59.46;101209.25;5057862;28;65433;-37
2024/01/26 09:37:14;;;;;;;27.05;21.13;;;;;;;33.27;58.54;101213.09;5057293;28;70748;-37
2024/01/26 09:39:45;;;;;;;31.98;21.75;;;;;;;33.42;58.52;101220.81;5056427;28;67811;-39
2024/01/26 09:42:16;;;;;;;23.55;21.05;;;;;;;33.49;58.12;101216.13;5045608;28;69433;-38
2024/01/26 09:44:47;;;;;;;28.88;22.23;;;;;;;33.56;57.91;101200.56;5057200;28;65882;-37
2024/01/26 09:47:19;;;;;;;24.40;21.75;;;;;;;33.25;57.98;101147.22;5044650;28;71101;-37
2024/01/26 09:49:57;;;;;;;26.58;22.33;;;;;;;33.64;57.92;101208.41;5036796;28;65245;-38
2024/01/26 09:52:27;;;;;;;26.75;22.15;;;;;;;33.70;57.33;101215.63;5049097;28;69933;-38
2024/01/26 09:55:01;;;;;;;26.08;22.38;;;;;;;33.48;57.84;101174.50;5043064;28;65719;-37
2024/01/26 09:57:32;;;;;;;30.63;23.05;;;;;;;33.77;57.41;101224.53;5039902;28;68893;-39
2024/01/26 10:00:04;;;;;;;26.08;22.88;;;;;;;33.80;57.59;101229.53;5038175;28;67067;-39
2024/01/26 10:02:35;;;;;;;36.47;23.88;;;;;;;33.81;57.88;101222.19;5042626;28;70604;-39
2024/01/26 10:05:06;;;;;;;30.67;23.10;;;;;;;33.83;57.76;101219.25;5041990;28;65456;-39
2024/01/26 10:07:38;;;;;;;37.67;24.38;;;;;;;33.85;57.70;101223.38;5041008;28;69268;-38
2024/01/26 10:10:10;;;;;;;29.73;23.73;;;;;;;33.90;57.54;101236.28;5043869;28;66176;-38
2024/01/26 10:12:43;;;;;;;28.63;23.00;;;;;;;33.92;57.80;101242.31;5040969;28;68942;-39
2024/01/26 10:15:13;;;;;;;37.88;23.58;;;;;;;33.82;58.22;101245.59;5043312;28;66574;-38
2024/01/26 10:17:53;;;;;;;39.28;22.80;;;;;;;33.35;59.05;101194.56;5036433;28;70471;-37
2024/01/26 10:20:24;;;;;;;43.60;20.65;;;;;;;33.53;59.73;101236.41;5039907;28;65767;-37
2024/01/26 10:22:56;;;;;;;44.03;21.10;;;;;;;33.36;60.00;101237.00;5031696;28;69519;-37
2024/01/26 10:25:27;;;;;;;38.03;20.67;;;;;;;33.44;60.33;101257.63;5037296;28;66272;-36
2024/01/26 10:27:58;;;;;;;44.75;20.35;;;;;;;33.36;60.16;101258.75;5043642;28;69317;-39
2024/01/26 10:30:28;;;;;;;32.20;18.95;;;;;;;33.33;60.58;101261.94;5042704;28;66896;-38
2024/01/26 10:32:59;;;;;;;33.25;19.75;;;;;;;33.26;60.55;101255.72;5035891;28;69871;-37
2024/01/26 10:35:31;;;;;;;40.22;20.23;;;;;;;32.91;60.49;101207.41;5027432;28;65293;-37
2024/01/26 10:38:04;;;;;;;42.40;19.85;;;;;;;32.84;60.63;101209.34;5048915;28;70347;-37
2024/01/26 10:40:34;;;;;;;53.33;20.42;;;;;;;33.17;60.77;101264.44;5043810;28;65714;-37
2024/01/26 10:43:07;;;;;;;41.27;19.40;;;;;;;33.10;60.57;101261.81;5039359;28;70840;-37
2024/01/26 10:45:42;;;;;;;39.65;19.42;;;;;;;33.08;60.95;101266.63;5037173;28;66447;-39
2024/01/26 10:48:13;;;;;;;38.03;19.15;;;;;;;33.00;61.28;101258.78;5040707;28;69881;-37
2024/01/26 10:50:45;;;;;;;58.97;18.52;;;;;;;32.97;61.44;101270.88;5042286;28;66691;-37
2024/01/26 10:53:19;;;;;;;51.90;18.70;;;;;;;32.95;61.89;101278.44;5042932;28;70258;-37
2024/01/26 10:55:50;;;;;;;45.55;17.75;;;;;;;32.96;62.08;101284.69;5056591;28;65380;-38
2024/01/26 10:58:20;;;;;;;36.10;17.23;;;;;;;32.87;62.56;101282.25;5041290;28;69481;-38
2024/01/26 11:00:52;;;;;;;38.75;17.90;;;;;;;32.90;62.56;101280.97;5051115;28;66071;-38
2024/01/26 11:03:23;;;;;;;39.92;18.02;;;;;;;32.89;62.72;101290.19;5037225;28;70933;-39
2024/01/26 11:05:55;;;;;;;29.37;16.40;;;;;;;32.88;62.60;101289.38;5042123;28;67102;-38
2024/01/26 11:08:29;;;;;;;37.45;16.20;;;;;;;32.86;62.83;101291.47;5040776;28;68497;-37
2024/01/26 11:10:59;;;;;;;26.30;15.82;;;;;;;32.83;62.64;101286.50;5040525;28;65816;-40
2024/01/26 11:13:37;;;;;;;28.42;15.13;;;;;;;32.39;62.79;101220.44;5048581;28;70394;-38
2024/01/26 11:16:11;;;;;;;37.80;15.70;;;;;;;32.82;63.03;101290.28;5046383;28;66237;-39
2024/01/26 11:18:41;;;;;;;34.00;15.35;;;;;;;32.77;63.21;101287.41;5054300;28;70411;-38
2024/01/26 11:21:19;;;;;;;27.73;14.95;;;;;;;32.44;62.73;101244.22;5049145;28;65632;-39
2024/01/26 11:23:50;;;;;;;37.70;16.48;;;;;;;32.66;62.94;101283.53;5048532;28;70383;-39
2024/01/26 11:26:20;;;;;;;36.22;15.38;;;;;;;32.73;63.19;101297.03;5046272;28;66629;-38
2024/01/26 11:28:51;;;;;;;33.17;14.90;;;;;;;32.69;63.13;101301.25;5049868;28;70025;-38
2024/01/26 11:31:29;;;;;;;30.77;14.98;;;;;;;32.72;63.52;101300.81;5026554;28;65350;-39